createdAt,value
2023-08-30T00:01:28.821Z,24.54
2023-08-30T00:03:56.092Z,24.53
2023-08-30T00:06:22.984Z,24.55
2023-08-30T00:08:50.733Z,24.56
2023-08-30T00:11:17.565Z,24.57
2023-08-30T00:13:44.612Z,24.48
2023-08-30T00:16:11.588Z,24.56
2023-08-30T00:18:38.763Z,24.56
2023-08-30T00:21:05.615Z,24.61
2023-08-30T00:23:32.471Z,24.74
2023-08-30T00:25:59.428Z,24.90
2023-08-30T00:28:26.320Z,24.84
2023-08-30T00:30:56.301Z,24.83
2023-08-30T00:33:23.439Z,24.74
2023-08-30T00:35:59.860Z,24.61
2023-08-30T00:38:30.767Z,24.62
2023-08-30T00:40:57.883Z,24.75
2023-08-30T00:43:25.788Z,24.70
2023-08-30T00:45:53.346Z,24.69
2023-08-30T00:48:21.928Z,24.73
2023-08-30T00:50:49.360Z,24.70
2023-08-30T00:53:16.421Z,24.83
2023-08-30T00:55:44.696Z,24.84
2023-08-30T00:58:12.532Z,24.86
2023-08-30T01:00:40.671Z,24.89
2023-08-30T01:03:11.188Z,24.98
2023-08-30T01:05:38.276Z,24.96
2023-08-30T01:08:05.913Z,24.54
2023-08-30T01:10:52.281Z,24.48
2023-08-30T01:13:21.752Z,24.51
2023-08-30T01:15:50.149Z,24.50
2023-08-30T01:18:23.020Z,24.40
2023-08-30T01:20:52.800Z,24.59
2023-08-30T01:23:50.748Z,24.64
2023-08-30T01:26:42.035Z,24.48
2023-08-30T01:29:12.665Z,24.40
2023-08-30T01:31:42.023Z,24.42
2023-08-30T01:34:10.000Z,24.25
2023-08-30T01:36:38.024Z,24.09
2023-08-30T01:39:06.381Z,24.17
2023-08-30T01:41:36.725Z,24.07
2023-08-30T01:44:06.028Z,23.95
2023-08-30T01:46:35.046Z,23.84
2023-08-30T01:49:04.799Z,23.75
2023-08-30T01:51:32.956Z,23.60
2023-08-30T01:54:03.460Z,23.56
2023-08-30T01:56:30.521Z,23.44
2023-08-30T01:58:57.791Z,23.55
2023-08-30T02:01:24.924Z,23.55
2023-08-30T02:03:53.038Z,23.50
2023-08-30T02:06:30.716Z,23.43
2023-08-30T02:09:05.991Z,23.28
2023-08-30T02:11:37.471Z,23.31
2023-08-30T02:14:08.958Z,23.32
2023-08-30T02:16:37.848Z,23.12
2023-08-30T02:19:05.429Z,23.25
2023-08-30T02:21:32.641Z,23.23
2023-08-30T02:23:59.742Z,23.15
2023-08-30T02:26:26.608Z,23.10
2023-08-30T02:28:53.830Z,23.00
2023-08-30T02:31:20.943Z,22.90
2023-08-30T02:33:48.000Z,22.92
2023-08-30T02:36:15.398Z,22.98
2023-08-30T02:38:42.546Z,22.83
2023-08-30T02:41:11.365Z,22.95
2023-08-30T02:43:38.992Z,22.96
2023-08-30T02:46:06.684Z,22.97
2023-08-30T02:48:34.750Z,22.83
2023-08-30T02:51:02.023Z,22.92
2023-08-30T02:53:29.230Z,22.92
2023-08-30T02:55:57.069Z,22.76
2023-08-30T02:58:24.714Z,22.88
2023-08-30T03:00:57.334Z,22.74
2023-08-30T03:03:24.253Z,22.78
2023-08-30T03:05:51.406Z,22.74
2023-08-30T03:08:18.428Z,22.67
2023-08-30T03:10:45.634Z,22.72
2023-08-30T03:13:13.501Z,22.76
2023-08-30T03:15:40.659Z,22.69
2023-08-30T03:18:09.255Z,22.75
2023-08-30T03:20:37.041Z,22.78
2023-08-30T03:23:04.482Z,22.67
2023-08-30T03:25:33.894Z,22.91
2023-08-30T03:28:00.861Z,22.91
2023-08-30T03:30:27.869Z,22.88
2023-08-30T03:32:55.763Z,22.88
2023-08-30T03:35:23.040Z,22.89
2023-08-30T03:37:51.509Z,22.88
2023-08-30T03:40:18.675Z,23.02
2023-08-30T03:42:45.673Z,22.99
2023-08-30T03:45:12.957Z,22.77
2023-08-30T03:47:40.381Z,22.83
2023-08-30T03:50:08.152Z,22.94
2023-08-30T03:52:36.306Z,22.94
2023-08-30T03:55:04.058Z,22.86
2023-08-30T03:57:31.512Z,23.00
2023-08-30T03:59:58.343Z,22.92
2023-08-30T04:02:25.562Z,22.99
2023-08-30T04:04:52.568Z,23.04
2023-08-30T04:07:19.567Z,23.14
2023-08-30T04:09:46.513Z,23.26
2023-08-30T04:12:13.611Z,23.28
2023-08-30T04:14:40.730Z,23.38
2023-08-30T04:17:07.579Z,23.41
2023-08-30T04:19:35.270Z,23.50
2023-08-30T04:22:02.514Z,23.40
2023-08-30T04:24:30.155Z,23.41
2023-08-30T04:26:57.025Z,23.51
2023-08-30T04:29:24.069Z,23.57
2023-08-30T04:31:51.014Z,23.55
2023-08-30T04:34:18.204Z,23.59
2023-08-30T04:36:45.798Z,23.66
2023-08-30T04:39:14.995Z,23.71
2023-08-30T04:41:42.643Z,23.82
2023-08-30T04:44:10.174Z,23.78
2023-08-30T04:46:37.122Z,23.89
2023-08-30T04:49:04.869Z,23.73
2023-08-30T04:51:33.258Z,23.83
2023-08-30T04:54:00.290Z,24.00
2023-08-30T04:56:27.417Z,24.07
2023-08-30T04:58:54.583Z,24.15
2023-08-30T05:01:21.822Z,24.19
2023-08-30T05:03:52.212Z,24.02
2023-08-30T05:06:20.145Z,24.06
2023-08-30T05:08:47.134Z,24.12
2023-08-30T05:11:14.371Z,24.17
2023-08-30T05:13:42.161Z,24.16
2023-08-30T05:16:09.225Z,24.16
2023-08-30T05:18:36.441Z,24.18
2023-08-30T05:21:06.161Z,24.29
2023-08-30T05:23:33.529Z,24.34
2023-08-30T05:26:00.511Z,24.44
2023-08-30T05:28:27.419Z,24.41
2023-08-30T05:30:54.515Z,24.58
2023-08-30T05:33:50.485Z,24.67
2023-08-30T05:36:49.331Z,24.64
2023-08-30T05:39:28.235Z,24.71
2023-08-30T05:41:57.832Z,24.77
2023-08-30T05:44:25.068Z,24.88
2023-08-30T05:46:52.318Z,24.88
2023-08-30T05:49:19.214Z,24.96
2023-08-30T05:51:46.719Z,25.08
2023-08-30T05:54:14.299Z,25.00
2023-08-30T05:56:41.393Z,25.19
2023-08-30T05:59:09.118Z,25.32
2023-08-30T06:01:36.721Z,25.24
2023-08-30T06:04:05.674Z,25.39
2023-08-30T06:06:32.600Z,25.43
2023-08-30T06:09:00.359Z,25.42
2023-08-30T06:11:27.791Z,25.42
2023-08-30T06:13:54.815Z,25.36
2023-08-30T06:16:22.191Z,25.34
2023-08-30T06:18:49.122Z,25.35
2023-08-30T06:21:16.351Z,25.63
2023-08-30T06:23:43.189Z,25.68
2023-08-30T06:26:10.256Z,25.77
2023-08-30T06:28:38.780Z,25.82
2023-08-30T06:31:06.032Z,25.79
2023-08-30T06:33:33.068Z,25.94
2023-08-30T06:36:00.228Z,26.04
2023-08-30T06:38:27.354Z,26.17
2023-08-30T06:40:55.020Z,26.26
2023-08-30T06:43:22.077Z,26.40
2023-08-30T06:45:49.176Z,26.35
2023-08-30T06:48:16.375Z,26.46
2023-08-30T06:50:43.586Z,26.52
2023-08-30T06:53:10.550Z,26.68
2023-08-30T06:55:38.882Z,26.74
2023-08-30T06:58:06.274Z,26.82
2023-08-30T07:00:33.638Z,26.83
2023-08-30T07:03:00.799Z,26.88
2023-08-30T07:05:27.981Z,26.85
2023-08-30T07:07:54.835Z,26.85
2023-08-30T07:10:21.818Z,27.01
2023-08-30T07:12:50.148Z,27.11
2023-08-30T07:15:18.361Z,27.09
2023-08-30T07:17:52.799Z,27.08
2023-08-30T07:20:22.036Z,27.15
2023-08-30T07:22:49.042Z,27.27
2023-08-30T07:25:15.919Z,27.37
2023-08-30T07:27:43.062Z,27.36
2023-08-30T07:30:10.491Z,27.64
2023-08-30T07:32:39.365Z,27.74
2023-08-30T07:35:07.013Z,27.66
2023-08-30T07:37:34.149Z,27.71
2023-08-30T07:40:01.143Z,27.86
2023-08-30T07:42:28.277Z,27.77
2023-08-30T07:44:55.469Z,28.00
2023-08-30T07:47:22.590Z,28.04
2023-08-30T07:49:49.518Z,28.12
2023-08-30T07:52:16.843Z,28.12
2023-08-30T07:54:45.402Z,28.14
2023-08-30T07:57:12.978Z,28.37
2023-08-30T07:59:40.108Z,28.51
2023-08-30T08:02:09.027Z,28.62
2023-08-30T08:04:36.887Z,28.76
2023-08-30T08:07:06.019Z,28.72
2023-08-30T08:09:33.666Z,28.89
2023-08-30T08:12:01.236Z,28.86
2023-08-30T08:14:28.577Z,29.05
2023-08-30T08:16:56.016Z,29.16
2023-08-30T08:19:26.019Z,29.24
2023-08-30T08:21:56.286Z,29.08
2023-08-30T08:24:23.427Z,29.27
2023-08-30T08:26:50.361Z,29.44
2023-08-30T08:29:17.431Z,29.54
2023-08-30T08:31:44.489Z,29.55
2023-08-30T08:34:13.396Z,29.64
2023-08-30T08:36:41.385Z,29.70
2023-08-30T08:39:08.793Z,29.69
2023-08-30T08:41:45.493Z,29.78
2023-08-30T08:44:14.189Z,29.84
2023-08-30T08:46:42.645Z,29.79
2023-08-30T08:49:17.837Z,29.77
2023-08-30T08:51:46.229Z,29.90
2023-08-30T08:54:14.450Z,29.97
2023-08-30T08:56:41.940Z,30.00
2023-08-30T08:59:10.118Z,29.77
2023-08-30T09:01:37.861Z,30.00
2023-08-30T09:04:09.382Z,30.06
2023-08-30T09:06:37.401Z,30.22
2023-08-30T09:09:05.798Z,30.03
2023-08-30T09:14:03.784Z,30.20
2023-08-30T09:16:30.850Z,30.33
2023-08-30T09:21:33.187Z,30.28
2023-08-30T09:24:07.883Z,30.30
2023-08-30T09:26:40.276Z,30.12
2023-08-30T09:29:08.318Z,30.31
2023-08-30T09:31:41.640Z,30.24
2023-08-30T09:34:09.183Z,30.38
2023-08-30T09:36:40.319Z,30.22
2023-08-30T09:39:12.265Z,30.38
2023-08-30T09:41:44.455Z,30.60
2023-08-30T09:44:14.678Z,30.70
2023-08-30T09:46:51.509Z,30.83
2023-08-30T09:49:24.819Z,30.85
2023-08-30T09:51:54.528Z,30.89
2023-08-30T09:54:38.276Z,31.06
2023-08-30T09:57:07.402Z,31.16
2023-08-30T09:59:35.400Z,31.11
2023-08-30T10:02:03.077Z,31.25
2023-08-30T10:04:31.206Z,30.98
2023-08-30T10:06:59.785Z,31.18
2023-08-30T10:09:27.119Z,31.27
2023-08-30T10:11:54.626Z,31.40
2023-08-30T10:14:21.492Z,31.40
2023-08-30T10:16:49.803Z,31.41
2023-08-30T10:19:27.685Z,31.48
2023-08-30T10:22:06.168Z,31.51
2023-08-30T10:25:02.853Z,31.44
2023-08-30T10:27:38.063Z,31.55
2023-08-30T10:30:08.374Z,31.66
2023-08-30T10:32:46.887Z,31.75
2023-08-30T10:35:16.141Z,31.76
2023-08-30T10:37:43.600Z,31.90
2023-08-30T10:40:12.513Z,31.93
2023-08-30T10:42:39.616Z,31.87
2023-08-30T10:45:13.731Z,31.89
2023-08-30T10:47:42.142Z,31.88
2023-08-30T10:50:13.432Z,31.73
2023-08-30T10:52:40.247Z,31.73
2023-08-30T10:55:12.492Z,31.76
2023-08-30T10:57:43.641Z,31.87
2023-08-30T11:00:11.006Z,31.96
2023-08-30T11:02:39.173Z,32.02
2023-08-30T11:05:10.477Z,32.12
2023-08-30T11:07:37.868Z,31.93
2023-08-30T11:10:07.553Z,32.11
2023-08-30T11:12:34.898Z,32.09
2023-08-30T11:15:02.439Z,32.24
2023-08-30T11:17:30.049Z,32.36
2023-08-30T11:20:25.042Z,32.24
2023-08-30T11:22:53.192Z,32.31
2023-08-30T11:25:20.454Z,32.46
2023-08-30T11:27:48.738Z,32.46
2023-08-30T11:30:15.786Z,32.43
2023-08-30T11:32:46.903Z,32.59
2023-08-30T11:35:13.921Z,32.76
2023-08-30T11:37:42.352Z,32.69
2023-08-30T11:40:12.454Z,32.69
2023-08-30T11:42:39.934Z,32.70
2023-08-30T11:45:08.192Z,32.80
2023-08-30T11:47:35.795Z,32.79
2023-08-30T11:50:03.159Z,32.99
2023-08-30T11:52:30.766Z,33.20
2023-08-30T11:54:58.017Z,33.16
2023-08-30T11:57:27.282Z,33.21
2023-08-30T11:59:54.554Z,33.16
2023-08-30T12:02:23.265Z,33.01
2023-08-30T12:04:51.997Z,33.04
2023-08-30T12:07:26.663Z,32.97
2023-08-30T12:10:04.921Z,33.01
2023-08-30T12:12:32.290Z,32.91
2023-08-30T12:14:59.500Z,32.86
2023-08-30T12:17:26.844Z,32.72
2023-08-30T12:20:00.526Z,32.52
2023-08-30T12:22:43.710Z,32.45
2023-08-30T12:25:59.046Z,32.27
2023-08-30T12:28:32.875Z,32.24
2023-08-30T12:31:01.982Z,32.15
2023-08-30T12:33:32.581Z,31.84
2023-08-30T12:35:59.669Z,31.63
2023-08-30T12:38:26.967Z,31.38
2023-08-30T12:40:56.645Z,31.19
2023-08-30T12:43:24.906Z,31.07
2023-08-30T12:45:52.289Z,30.93
2023-08-30T12:48:19.922Z,30.97
2023-08-30T12:50:50.350Z,31.05
2023-08-30T12:53:20.398Z,31.32
2023-08-30T12:55:47.536Z,31.52
2023-08-30T12:58:15.317Z,32.00
2023-08-30T13:00:42.706Z,32.15
2023-08-30T13:03:10.290Z,32.27
2023-08-30T13:05:38.013Z,32.45
2023-08-30T13:08:05.234Z,32.38
2023-08-30T13:10:33.384Z,32.52
2023-08-30T13:13:00.498Z,32.63
2023-08-30T13:15:27.904Z,32.67
2023-08-30T13:17:54.995Z,32.70
2023-08-30T13:20:22.358Z,32.53
2023-08-30T13:22:49.642Z,32.29
2023-08-30T13:25:16.905Z,32.25
2023-08-30T13:27:43.807Z,31.80
2023-08-30T13:30:11.530Z,31.36
2023-08-30T13:32:38.756Z,30.93
2023-08-30T13:35:06.364Z,30.33
2023-08-30T13:37:33.317Z,30.42
2023-08-30T13:40:00.346Z,30.49
2023-08-30T13:42:27.552Z,30.42
2023-08-30T13:44:54.635Z,30.49
2023-08-30T13:47:21.915Z,30.41
2023-08-30T13:49:49.014Z,30.34
2023-08-30T13:52:16.972Z,30.06
2023-08-30T13:54:44.944Z,30.19
2023-08-30T13:57:12.280Z,30.12
2023-08-30T13:59:39.360Z,29.92
2023-08-30T14:02:06.599Z,29.98
2023-08-30T14:04:34.279Z,29.89
2023-08-30T14:07:01.487Z,29.72
2023-08-30T14:09:29.246Z,29.65
2023-08-30T14:11:57.032Z,29.55
2023-08-30T14:14:24.233Z,29.56
2023-08-30T14:16:51.354Z,29.53
2023-08-30T14:19:18.454Z,29.55
2023-08-30T14:21:45.791Z,29.41
2023-08-30T14:24:13.256Z,29.46
2023-08-30T14:26:40.587Z,29.40
2023-08-30T14:29:07.647Z,29.31
2023-08-30T14:31:34.606Z,29.30
2023-08-30T14:34:01.761Z,29.22
2023-08-30T14:36:28.975Z,29.03
2023-08-30T14:38:55.864Z,28.83
2023-08-30T14:41:22.995Z,28.89
2023-08-30T14:43:50.038Z,28.74
2023-08-30T14:46:22.472Z,28.71
2023-08-30T14:48:50.402Z,28.66
2023-08-30T14:51:17.450Z,28.55
2023-08-30T14:53:44.380Z,28.60
2023-08-30T14:56:12.969Z,28.52
2023-08-30T14:58:40.794Z,28.41
2023-08-30T15:01:11.001Z,28.33
2023-08-30T15:03:38.399Z,28.21
2023-08-30T15:06:05.448Z,28.22
2023-08-30T15:08:32.666Z,28.27
2023-08-30T15:10:59.956Z,28.16
2023-08-30T15:13:27.353Z,28.21
2023-08-30T15:15:54.881Z,28.19
2023-08-30T15:18:21.817Z,28.21
2023-08-30T15:20:50.299Z,28.27
2023-08-30T15:23:20.113Z,28.30
2023-08-30T15:25:48.055Z,28.38
2023-08-30T15:28:15.823Z,28.40
2023-08-30T15:30:44.531Z,28.59
2023-08-30T15:33:12.302Z,28.68
2023-08-30T15:35:40.625Z,28.72
2023-08-30T15:38:10.984Z,28.88
2023-08-30T15:40:38.538Z,28.98
2023-08-30T15:43:07.327Z,28.84
2023-08-30T15:45:35.186Z,28.81
2023-08-30T15:48:02.295Z,28.78
2023-08-30T15:50:29.349Z,28.62
2023-08-30T15:52:56.397Z,28.41
2023-08-30T15:55:23.855Z,28.33
2023-08-30T15:57:50.707Z,28.32
2023-08-30T16:00:18.340Z,28.29
2023-08-30T16:02:45.541Z,28.08
2023-08-30T16:05:12.525Z,27.92
2023-08-30T16:07:39.682Z,28.00
2023-08-30T16:10:08.839Z,27.84
2023-08-30T16:12:35.981Z,27.86
2023-08-30T16:15:03.274Z,27.88
2023-08-30T16:17:30.298Z,27.75
2023-08-30T16:19:59.479Z,27.73
2023-08-30T16:22:26.946Z,27.69
2023-08-30T16:24:53.946Z,27.63
2023-08-30T16:27:20.993Z,27.55
2023-08-30T16:29:47.971Z,27.38
2023-08-30T16:32:14.843Z,27.22
2023-08-30T16:34:42.454Z,27.18
2023-08-30T16:37:09.649Z,27.15
2023-08-30T16:39:36.822Z,27.14
2023-08-30T16:42:04.084Z,27.14
2023-08-30T16:44:31.312Z,27.08
2023-08-30T16:46:58.236Z,27.10
2023-08-30T16:49:25.234Z,27.11
2023-08-30T16:51:53.745Z,27.09
2023-08-30T16:54:20.838Z,27.02
2023-08-30T16:56:48.108Z,26.97
2023-08-30T16:59:15.512Z,26.95
2023-08-30T17:01:45.766Z,26.89
2023-08-30T17:04:15.145Z,26.81
2023-08-30T17:06:44.241Z,26.69
2023-08-30T17:09:11.369Z,26.64
2023-08-30T17:11:41.303Z,26.56
2023-08-30T17:14:12.107Z,26.53
2023-08-30T17:16:40.060Z,26.67
2023-08-30T17:19:07.294Z,26.63
2023-08-30T17:21:34.692Z,26.52
2023-08-30T17:24:01.634Z,26.46
2023-08-30T17:26:28.629Z,26.44
2023-08-30T17:28:55.487Z,26.42
2023-08-30T17:31:25.986Z,26.41
2023-08-30T17:33:53.191Z,26.46
2023-08-30T17:36:20.460Z,26.48
2023-08-30T17:38:48.755Z,26.30
2023-08-30T17:41:15.780Z,26.25
2023-08-30T17:43:42.630Z,26.24
2023-08-30T17:46:09.736Z,26.20
2023-08-30T17:48:36.874Z,25.99
2023-08-30T17:51:07.024Z,26.04
2023-08-30T17:53:35.168Z,26.04
2023-08-30T17:56:02.867Z,26.01
2023-08-30T17:58:29.981Z,25.94
2023-08-30T18:00:59.730Z,26.08
2023-08-30T18:03:30.647Z,26.13
2023-08-30T18:06:02.219Z,25.98
2023-08-30T18:08:29.083Z,26.00
2023-08-30T18:10:56.329Z,25.93
2023-08-30T18:13:29.949Z,25.82
2023-08-30T18:15:57.906Z,25.40
2023-08-30T18:18:24.822Z,25.28
2023-08-30T18:20:51.775Z,25.21
2023-08-30T18:23:19.121Z,25.00
2023-08-30T18:25:46.088Z,24.95
2023-08-30T18:28:14.162Z,24.77
2023-08-30T18:30:42.148Z,24.77
2023-08-30T18:33:09.331Z,24.65
2023-08-30T18:35:36.760Z,24.58
2023-08-30T18:38:04.663Z,24.60
2023-08-30T18:40:31.594Z,24.67
2023-08-30T18:42:59.164Z,24.66
2023-08-30T18:45:26.123Z,24.58
2023-08-30T18:47:53.577Z,24.66
2023-08-30T18:50:20.829Z,24.67
2023-08-30T18:52:48.008Z,24.69
2023-08-30T18:55:15.363Z,24.63
2023-08-30T18:57:42.392Z,24.53
2023-08-30T19:00:11.681Z,24.59
2023-08-30T19:02:39.142Z,24.61
2023-08-30T19:05:07.712Z,24.30
2023-08-30T19:07:34.891Z,24.57
2023-08-30T19:10:01.940Z,24.57
2023-08-30T19:12:29.061Z,24.52
2023-08-30T19:14:56.177Z,24.44
2023-08-30T19:17:23.458Z,24.40
2023-08-30T19:19:50.384Z,24.45
2023-08-30T19:22:20.831Z,24.29
2023-08-30T19:24:49.286Z,24.26
2023-08-30T19:27:17.932Z,24.24
2023-08-30T19:29:47.607Z,24.31
2023-08-30T19:32:14.924Z,24.30
2023-08-30T19:34:41.893Z,23.96
2023-08-30T19:37:09.197Z,23.90
2023-08-30T19:39:36.345Z,23.59
2023-08-30T19:42:04.292Z,23.53
2023-08-30T19:44:31.277Z,23.48
2023-08-30T19:47:00.950Z,23.31
2023-08-30T19:49:34.912Z,23.27
2023-08-30T19:52:02.078Z,23.18
2023-08-30T19:54:34.278Z,23.05
2023-08-30T19:57:08.077Z,22.86
2023-08-30T19:59:35.684Z,22.69
2023-08-30T20:02:18.712Z,22.48
2023-08-30T20:04:45.796Z,22.32
2023-08-30T20:07:24.933Z,22.28
2023-08-30T20:09:52.036Z,22.11
2023-08-30T20:12:32.533Z,22.27
2023-08-30T20:15:05.986Z,22.30
2023-08-30T20:17:33.221Z,22.21
2023-08-30T20:20:00.777Z,22.18
2023-08-30T20:22:27.694Z,22.02
2023-08-30T20:24:56.215Z,22.06
2023-08-30T20:27:23.681Z,22.07
2023-08-30T20:29:50.839Z,21.94
2023-08-30T20:32:18.724Z,22.17
2023-08-30T20:34:46.178Z,22.22
2023-08-30T20:37:12.995Z,22.19
2023-08-30T20:39:40.374Z,22.19
2023-08-30T20:42:07.769Z,22.23
2023-08-30T20:44:34.696Z,22.26
2023-08-30T20:47:01.976Z,22.33
2023-08-30T20:49:28.846Z,22.24
2023-08-30T20:51:56.076Z,22.32
2023-08-30T20:54:22.900Z,22.43
2023-08-30T20:56:50.503Z,22.50
2023-08-30T20:59:17.557Z,22.50
2023-08-30T21:01:45.156Z,22.43
2023-08-30T21:04:12.172Z,22.49
2023-08-30T21:06:39.157Z,22.56
2023-08-30T21:09:06.551Z,22.48
2023-08-30T21:11:33.655Z,22.59
2023-08-30T21:14:01.398Z,22.58
2023-08-30T21:16:28.455Z,22.63
2023-08-30T21:18:55.794Z,22.74
2023-08-30T21:21:22.738Z,22.74
2023-08-30T21:23:49.843Z,22.78
2023-08-30T21:26:16.669Z,22.71
2023-08-30T21:28:43.884Z,22.77
2023-08-30T21:31:11.044Z,22.70
2023-08-30T21:33:38.197Z,22.93
2023-08-30T21:36:05.482Z,22.96
2023-08-30T21:38:32.515Z,22.90
2023-08-30T21:40:59.660Z,22.91
2023-08-30T21:43:27.010Z,22.91
2023-08-30T21:45:54.162Z,22.94
2023-08-30T21:48:21.814Z,22.98
2023-08-30T21:50:51.072Z,22.99
2023-08-30T21:53:19.740Z,22.97
2023-08-30T21:55:46.942Z,23.03
2023-08-30T21:58:14.555Z,22.95
2023-08-30T22:00:41.503Z,23.11
2023-08-30T22:03:08.945Z,23.06
2023-08-30T22:05:36.324Z,22.99
2023-08-30T22:08:03.804Z,22.93
2023-08-30T22:10:31.688Z,22.96
2023-08-30T22:12:59.008Z,22.94
2023-08-30T22:15:26.147Z,22.94
2023-08-30T22:17:53.412Z,22.92
2023-08-30T22:20:21.509Z,22.79
2023-08-30T22:22:49.076Z,22.90
2023-08-30T22:25:16.661Z,22.83
2023-08-30T22:27:44.757Z,22.80
2023-08-30T22:30:13.542Z,22.89
2023-08-30T22:32:40.629Z,22.83
2023-08-30T22:35:11.861Z,22.98
2023-08-30T22:37:39.144Z,22.93
2023-08-30T22:40:09.764Z,22.86
2023-08-30T22:42:39.390Z,22.97
2023-08-30T22:45:08.371Z,22.97
2023-08-30T22:47:35.896Z,23.02
2023-08-30T22:50:03.461Z,22.89
2023-08-30T22:52:30.629Z,22.97
2023-08-30T22:54:58.282Z,22.96
2023-08-30T22:57:25.230Z,22.82
2023-08-30T22:59:52.281Z,23.02
2023-08-30T23:02:19.192Z,23.08
2023-08-30T23:04:47.130Z,23.08
2023-08-30T23:07:14.878Z,23.05
2023-08-30T23:09:41.989Z,23.00
2023-08-30T23:12:09.558Z,22.93
2023-08-30T23:14:37.076Z,22.97
2023-08-30T23:17:04.616Z,23.04
2023-08-30T23:19:31.454Z,22.94
2023-08-30T23:21:58.639Z,22.96
2023-08-30T23:24:25.870Z,22.96
2023-08-30T23:26:53.249Z,22.89
2023-08-30T23:29:25.896Z,22.87
2023-08-30T23:31:56.299Z,22.82
2023-08-30T23:34:24.332Z,22.62
2023-08-30T23:36:51.361Z,22.80
2023-08-30T23:39:18.308Z,22.74
2023-08-30T23:41:45.687Z,22.77
2023-08-30T23:44:12.784Z,22.77
2023-08-30T23:46:39.870Z,22.61
2023-08-30T23:49:06.741Z,22.73
2023-08-30T23:51:33.994Z,22.59
2023-08-30T23:54:00.842Z,22.69
2023-08-30T23:56:27.700Z,22.67
2023-08-30T23:58:54.753Z,22.71
